createdAt,value
2018-01-28T00:01:37.506Z,17.82
2018-01-28T00:04:04.086Z,17.82
2018-01-28T00:06:30.316Z,17.81
2018-01-28T00:08:56.508Z,17.79
2018-01-28T00:11:22.720Z,17.79
2018-01-28T00:13:48.935Z,17.78
2018-01-28T00:16:15.436Z,17.79
2018-01-28T00:18:42.087Z,17.80
2018-01-28T00:21:08.339Z,17.80
2018-01-28T00:23:34.502Z,17.79
2018-01-28T00:26:01.010Z,17.74
2018-01-28T00:28:27.493Z,17.76
2018-01-28T00:30:53.663Z,17.77
2018-01-28T00:33:26.174Z,17.74
2018-01-28T00:35:52.335Z,17.76
2018-01-28T00:38:18.564Z,17.78
2018-01-28T00:40:44.846Z,17.78
2018-01-28T00:43:11.035Z,17.76
2018-01-28T00:45:37.210Z,17.77
2018-01-28T00:48:03.440Z,17.77
2018-01-28T00:50:30.005Z,17.76
2018-01-28T00:52:56.218Z,17.75
2018-01-28T00:55:22.760Z,17.76
2018-01-28T00:57:49.016Z,17.75
2018-01-28T01:00:15.211Z,17.75
2018-01-28T01:02:41.752Z,17.78
2018-01-28T01:05:08.189Z,17.76
2018-01-28T01:07:34.409Z,17.76
2018-01-28T01:10:00.700Z,17.76
2018-01-28T01:12:26.903Z,17.76
2018-01-28T01:14:53.132Z,17.76
2018-01-28T01:17:19.411Z,17.76
2018-01-28T01:19:45.659Z,17.76
2018-01-28T01:22:11.843Z,17.76
2018-01-28T01:24:38.319Z,17.76
2018-01-28T01:27:10.801Z,17.78
2018-01-28T01:29:37.101Z,17.80
2018-01-28T01:32:03.346Z,17.81
2018-01-28T01:34:29.571Z,17.82
2018-01-28T01:36:55.874Z,17.81
2018-01-28T01:39:22.099Z,17.82
2018-01-28T01:41:48.579Z,17.84
2018-01-28T01:44:15.138Z,17.84
2018-01-28T01:46:41.340Z,17.83
2018-01-28T01:49:07.657Z,17.83
2018-01-28T01:51:33.888Z,17.80
2018-01-28T01:54:00.112Z,17.83
2018-01-28T01:56:26.709Z,17.83
2018-01-28T01:58:52.946Z,17.84
2018-01-28T02:01:19.149Z,17.84
2018-01-28T02:03:45.362Z,17.83
2018-01-28T02:06:11.546Z,17.82
2018-01-28T02:08:38.114Z,17.84
2018-01-28T02:11:04.394Z,17.84
2018-01-28T02:13:30.605Z,17.84
2018-01-28T02:15:56.826Z,17.85
2018-01-28T02:18:23.750Z,17.87
2018-01-28T02:20:50.096Z,17.87
2018-01-28T02:23:16.314Z,17.87
2018-01-28T02:25:43.486Z,17.89
2018-01-28T02:28:09.734Z,17.90
2018-01-28T02:30:36.316Z,17.90
2018-01-28T02:33:02.546Z,17.90
2018-01-28T02:35:28.789Z,17.91
2018-01-28T02:37:55.615Z,17.89
2018-01-28T02:40:21.835Z,17.92
2018-01-28T02:42:48.072Z,17.93
2018-01-28T02:45:14.291Z,17.93
2018-01-28T02:47:40.492Z,17.91
2018-01-28T02:50:07.068Z,17.92
2018-01-28T02:52:33.306Z,17.91
2018-01-28T02:54:59.564Z,17.92
2018-01-28T02:57:25.786Z,17.93
2018-01-28T02:59:52.046Z,17.94
2018-01-28T03:02:18.284Z,17.95
2018-01-28T03:04:44.555Z,17.97
2018-01-28T03:07:10.738Z,17.98
2018-01-28T03:09:36.971Z,17.99
2018-01-28T03:12:03.531Z,18.00
2018-01-28T03:14:29.711Z,18.00
2018-01-28T03:16:55.956Z,18.00
2018-01-28T03:19:22.519Z,18.00
2018-01-28T03:21:48.739Z,17.99
2018-01-28T03:24:15.036Z,18.01
2018-01-28T03:26:41.273Z,18.02
2018-01-28T03:29:07.486Z,18.01
2018-01-28T03:31:34.090Z,18.02
2018-01-28T03:34:00.376Z,18.01
2018-01-28T03:36:26.824Z,18.03
2018-01-28T03:38:53.461Z,18.02
2018-01-28T03:41:19.681Z,18.01
2018-01-28T03:43:46.234Z,18.02
2018-01-28T03:46:12.457Z,18.04
2018-01-28T03:48:38.894Z,18.04
2018-01-28T03:51:05.120Z,18.05
2018-01-28T03:53:31.963Z,18.06
2018-01-28T03:55:58.145Z,18.06
2018-01-28T03:58:24.356Z,18.07
2018-01-28T04:00:50.611Z,18.06
2018-01-28T04:03:17.082Z,18.06
2018-01-28T04:05:43.369Z,18.06
2018-01-28T04:08:09.552Z,18.08
2018-01-28T04:10:35.742Z,18.08
2018-01-28T04:13:02.444Z,18.09
2018-01-28T04:15:28.613Z,18.09
2018-01-28T04:17:54.796Z,18.08
2018-01-28T04:20:21.028Z,18.08
2018-01-28T04:22:47.230Z,18.09
2018-01-28T04:25:13.538Z,18.11
2018-01-28T04:27:40.131Z,18.10
2018-01-28T04:30:06.619Z,18.10
2018-01-28T04:32:32.809Z,18.09
2018-01-28T04:34:59.526Z,18.09
2018-01-28T04:37:25.730Z,18.08
2018-01-28T04:39:51.926Z,18.09
2018-01-28T04:42:18.674Z,18.09
2018-01-28T04:44:44.975Z,18.09
2018-01-28T04:47:11.182Z,18.09
2018-01-28T04:49:37.670Z,18.09
2018-01-28T04:52:04.208Z,18.08
2018-01-28T04:54:30.489Z,18.07
2018-01-28T04:56:56.730Z,18.07
2018-01-28T04:59:23.300Z,18.07
2018-01-28T05:01:50.940Z,18.09
2018-01-28T05:04:17.203Z,18.09
2018-01-28T05:06:43.717Z,18.09
2018-01-28T05:09:09.979Z,18.08
2018-01-28T05:11:36.239Z,18.07
2018-01-28T05:14:02.483Z,18.07
2018-01-28T05:16:28.795Z,18.08
2018-01-28T05:18:55.025Z,18.11
2018-01-28T05:21:21.297Z,18.11
2018-01-28T05:23:47.576Z,18.14
2018-01-28T05:26:13.865Z,18.15
2018-01-28T05:28:40.106Z,18.17
2018-01-28T05:31:06.296Z,18.19
2018-01-28T05:33:32.489Z,18.18
2018-01-28T05:35:59.078Z,18.18
2018-01-28T05:38:25.611Z,18.17
2018-01-28T05:40:51.840Z,18.15
2018-01-28T05:43:18.153Z,18.15
2018-01-28T05:45:44.371Z,18.14
2018-01-28T05:48:10.550Z,18.15
2018-01-28T05:50:36.790Z,18.14
2018-01-28T05:53:03.060Z,18.14
2018-01-28T05:55:29.300Z,18.12
2018-01-28T05:57:55.544Z,18.11
2018-01-28T06:00:21.762Z,18.11
2018-01-28T06:02:48.056Z,18.09
2018-01-28T06:05:14.264Z,18.09
2018-01-28T06:07:40.458Z,18.09
2018-01-28T06:10:06.700Z,18.10
2018-01-28T06:12:32.865Z,18.09
2018-01-28T06:14:59.097Z,18.10
2018-01-28T06:17:25.671Z,18.10
2018-01-28T06:19:51.865Z,18.09
2018-01-28T06:22:18.331Z,18.10
2018-01-28T06:24:44.581Z,18.12
2018-01-28T06:27:10.810Z,18.12
2018-01-28T06:29:37.077Z,18.12
2018-01-28T06:32:03.347Z,18.10
2018-01-28T06:34:29.528Z,18.10
2018-01-28T06:36:55.811Z,18.10
2018-01-28T06:39:22.333Z,18.11
2018-01-28T06:41:48.489Z,18.11
2018-01-28T06:44:14.811Z,18.11
2018-01-28T06:46:41.333Z,18.12
2018-01-28T06:49:07.551Z,18.10
2018-01-28T06:51:34.101Z,18.10
2018-01-28T06:54:00.450Z,18.11
2018-01-28T06:56:26.673Z,18.10
2018-01-28T06:58:52.894Z,18.10
2018-01-28T07:01:19.392Z,18.10
2018-01-28T07:03:45.853Z,18.09
2018-01-28T07:06:12.427Z,18.07
2018-01-28T07:08:38.656Z,18.07
2018-01-28T07:11:04.860Z,18.08
2018-01-28T07:13:31.060Z,18.09
2018-01-28T07:15:57.687Z,18.09
2018-01-28T07:18:23.895Z,18.09
2018-01-28T07:20:50.118Z,18.08
2018-01-28T07:23:16.316Z,18.08
2018-01-28T07:25:42.484Z,18.08
2018-01-28T07:28:09.115Z,18.09
2018-01-28T07:30:35.346Z,18.10
2018-01-28T07:33:01.539Z,18.12
2018-01-28T07:35:28.345Z,18.14
2018-01-28T07:37:54.526Z,18.13
2018-01-28T07:40:20.748Z,18.11
2018-01-28T07:42:46.960Z,18.12
2018-01-28T07:45:13.467Z,18.13
2018-01-28T07:47:39.641Z,18.13
2018-01-28T07:50:05.882Z,18.12
2018-01-28T07:52:32.361Z,18.12
2018-01-28T07:54:58.551Z,18.12
2018-01-28T07:57:24.826Z,18.11
2018-01-28T07:59:51.074Z,18.11
2018-01-28T08:02:17.625Z,18.12
2018-01-28T08:04:43.863Z,18.14
2018-01-28T08:07:10.207Z,18.16
2018-01-28T08:09:37.412Z,18.18
2018-01-28T08:15:02.866Z,18.19
2018-01-28T08:17:29.126Z,18.20
2018-01-28T08:19:55.438Z,18.23
2018-01-28T08:22:21.709Z,18.24
2018-01-28T08:24:47.935Z,18.25
2018-01-28T08:27:24.175Z,18.27
2018-01-28T08:29:50.443Z,18.28
2018-01-28T08:32:16.689Z,18.29
2018-01-28T08:34:42.902Z,18.31
2018-01-28T08:37:09.114Z,18.32
2018-01-28T08:39:35.749Z,18.33
2018-01-28T08:42:01.963Z,18.34
2018-01-28T08:44:28.217Z,18.34
2018-01-28T08:46:54.464Z,18.32
2018-01-28T08:49:20.678Z,18.33
2018-01-28T08:51:47.278Z,18.31
2018-01-28T08:54:13.505Z,18.31
2018-01-28T08:56:40.068Z,18.30
2018-01-28T08:59:06.310Z,18.33
2018-01-28T09:01:32.821Z,18.35
2018-01-28T09:03:59.050Z,18.37
2018-01-28T09:06:25.305Z,18.38
2018-01-28T09:08:51.510Z,18.39
2018-01-28T09:11:17.738Z,18.38
2018-01-28T09:13:43.990Z,18.40
2018-01-28T09:16:10.210Z,18.42
2018-01-28T09:18:36.425Z,18.45
2018-01-28T09:21:02.963Z,18.46
2018-01-28T09:23:29.593Z,18.47
2018-01-28T09:25:55.817Z,18.50
2018-01-28T09:28:22.071Z,18.49
2018-01-28T09:30:48.269Z,18.53
2018-01-28T09:33:20.604Z,18.55
2018-01-28T09:35:47.077Z,18.59
2018-01-28T09:38:13.513Z,18.62
2018-01-28T09:40:40.046Z,18.64
2018-01-28T09:43:06.295Z,18.64
2018-01-28T09:45:32.509Z,18.66
2018-01-28T09:47:58.733Z,18.68
2018-01-28T09:50:25.225Z,18.71
2018-01-28T09:52:51.460Z,18.71
2018-01-28T09:55:17.633Z,18.70
2018-01-28T09:57:44.157Z,18.71
2018-01-28T10:00:10.330Z,18.71
2018-01-28T10:02:36.530Z,18.72
2018-01-28T10:05:02.828Z,18.73
2018-01-28T10:07:29.114Z,18.74
2018-01-28T10:09:55.339Z,18.75
2018-01-28T10:12:21.571Z,18.78
2018-01-28T10:14:47.776Z,18.80
2018-01-28T10:17:14.036Z,18.82
2018-01-28T10:19:40.258Z,18.84
2018-01-28T10:22:06.446Z,18.88
2018-01-28T10:24:32.707Z,18.89
2018-01-28T10:26:58.990Z,18.93
2018-01-28T10:29:25.542Z,18.92
2018-01-28T10:31:51.794Z,18.90
2018-01-28T10:34:17.984Z,18.88
2018-01-28T10:36:44.210Z,18.87
2018-01-28T10:39:10.495Z,18.87
2018-01-28T10:41:36.701Z,18.88
2018-01-28T10:44:02.894Z,18.89
2018-01-28T10:46:29.236Z,18.89
2018-01-28T10:48:55.523Z,18.88
2018-01-28T10:51:21.998Z,18.87
2018-01-28T10:53:48.307Z,18.87
2018-01-28T10:56:14.518Z,18.86
2018-01-28T10:58:40.701Z,18.86
2018-01-28T11:01:07.225Z,18.83
2018-01-28T11:03:33.480Z,18.80
2018-01-28T11:05:59.784Z,18.79
2018-01-28T11:08:26.315Z,18.79
2018-01-28T11:10:52.851Z,18.80
2018-01-28T11:13:19.791Z,18.81
2018-01-28T11:15:46.029Z,18.80
2018-01-28T11:18:12.236Z,18.78
2018-01-28T11:20:38.497Z,18.77
2018-01-28T11:23:04.988Z,18.79
2018-01-28T11:25:31.195Z,18.78
2018-01-28T11:27:57.416Z,18.77
2018-01-28T11:30:23.650Z,18.77
2018-01-28T11:32:49.945Z,18.75
2018-01-28T11:35:16.237Z,18.76
2018-01-28T11:37:42.452Z,18.76
2018-01-28T11:40:08.703Z,18.75
2018-01-28T11:42:34.981Z,18.74
2018-01-28T11:45:01.176Z,18.72
2018-01-28T11:47:27.352Z,18.73
2018-01-28T11:49:53.929Z,18.73
2018-01-28T11:52:20.120Z,18.75
2018-01-28T11:54:46.605Z,18.78
2018-01-28T11:57:13.135Z,18.80
2018-01-28T11:59:39.375Z,18.82
2018-01-28T12:02:05.589Z,18.81
2018-01-28T12:04:31.834Z,18.82
2018-01-28T12:06:58.352Z,18.83
2018-01-28T12:09:24.589Z,18.81
2018-01-28T12:11:50.824Z,18.81
2018-01-28T12:14:17.339Z,18.80
2018-01-28T12:16:43.611Z,18.79
2018-01-28T12:19:09.779Z,18.79
2018-01-28T12:21:35.989Z,18.77
2018-01-28T12:24:02.236Z,18.77
2018-01-28T12:26:28.872Z,18.77
2018-01-28T12:28:55.077Z,18.75
2018-01-28T12:31:21.334Z,18.74
2018-01-28T12:33:47.962Z,18.73
2018-01-28T12:36:14.166Z,18.73
2018-01-28T12:38:40.381Z,18.74
2018-01-28T12:41:06.628Z,18.73
2018-01-28T12:43:32.913Z,18.72
2018-01-28T12:45:59.069Z,18.74
2018-01-28T12:48:25.400Z,18.76
2018-01-28T12:50:51.891Z,18.77
2018-01-28T12:53:18.424Z,18.78
2018-01-28T12:55:44.718Z,18.78
2018-01-28T12:58:10.975Z,18.75
2018-01-28T13:00:37.178Z,18.75
2018-01-28T13:03:03.400Z,18.72
2018-01-28T13:05:29.599Z,18.70
2018-01-28T13:07:56.511Z,18.69
2018-01-28T13:10:22.703Z,18.67
2018-01-28T13:12:48.887Z,18.63
2018-01-28T13:15:15.473Z,18.62
2018-01-28T13:17:41.694Z,18.60
2018-01-28T13:20:07.878Z,18.58
2018-01-28T13:22:34.409Z,18.57
2018-01-28T13:25:01.245Z,18.57
2018-01-28T13:27:27.457Z,18.56
2018-01-28T13:29:53.647Z,18.55
2018-01-28T13:32:19.899Z,18.55
2018-01-28T13:34:46.118Z,18.53
2018-01-28T13:37:12.332Z,18.52
2018-01-28T13:39:38.613Z,18.51
2018-01-28T13:42:04.816Z,18.51
2018-01-28T13:44:31.082Z,18.51
2018-01-28T13:46:57.648Z,18.48
2018-01-28T13:49:23.861Z,18.53
2018-01-28T13:51:50.078Z,18.52
2018-01-28T13:54:16.360Z,18.50
2018-01-28T13:56:42.549Z,18.54
2018-01-28T13:59:08.764Z,18.54
2018-01-28T14:01:35.004Z,18.55
2018-01-28T14:04:01.498Z,18.54
2018-01-28T14:06:27.725Z,18.52
2018-01-28T14:08:53.976Z,18.52
2018-01-28T14:11:20.171Z,18.52
2018-01-28T14:13:46.371Z,18.52
2018-01-28T14:16:12.645Z,18.51
2018-01-28T14:18:38.895Z,18.48
2018-01-28T14:21:05.103Z,18.47
2018-01-28T14:23:31.632Z,18.46
2018-01-28T14:25:58.213Z,18.45
2018-01-28T14:28:24.451Z,18.43
2018-01-28T14:30:50.710Z,18.42
2018-01-28T14:33:17.121Z,18.42
2018-01-28T14:35:43.325Z,18.42
2018-01-28T14:38:09.517Z,18.42
2018-01-28T14:40:35.779Z,18.43
2018-01-28T14:43:02.379Z,18.42
2018-01-28T14:45:28.644Z,18.42
2018-01-28T14:47:55.136Z,18.43
2018-01-28T14:50:21.358Z,18.42
2018-01-28T14:52:47.592Z,18.42
2018-01-28T14:55:13.845Z,18.42
2018-01-28T14:57:40.079Z,18.42
2018-01-28T15:00:06.362Z,18.42
2018-01-28T15:02:32.618Z,18.42
2018-01-28T15:04:58.820Z,18.42
2018-01-28T15:07:25.048Z,18.43
2018-01-28T15:09:51.254Z,18.41
2018-01-28T15:12:17.457Z,18.41
2018-01-28T15:14:43.709Z,18.42
2018-01-28T15:17:10.181Z,18.43
2018-01-28T15:19:36.362Z,18.43
2018-01-28T15:22:02.691Z,18.41
2018-01-28T15:24:28.908Z,18.42
2018-01-28T15:26:55.095Z,18.42
2018-01-28T15:29:21.319Z,18.43
2018-01-28T15:31:47.558Z,18.44
2018-01-28T15:34:13.831Z,18.44
2018-01-28T15:36:40.002Z,18.45
2018-01-28T15:39:06.215Z,18.44
2018-01-28T15:41:32.983Z,18.43
2018-01-28T15:43:59.173Z,18.43
2018-01-28T15:46:25.405Z,18.43
2018-01-28T15:48:51.971Z,18.43
2018-01-28T15:51:18.203Z,18.43
2018-01-28T15:53:44.441Z,18.42
2018-01-28T15:56:10.708Z,18.42
2018-01-28T15:58:36.923Z,18.42
2018-01-28T16:01:03.129Z,18.42
2018-01-28T16:03:29.645Z,18.43
2018-01-28T16:05:55.895Z,18.43
2018-01-28T16:08:22.171Z,18.43
2018-01-28T16:10:48.381Z,18.43
2018-01-28T16:13:14.867Z,18.43
2018-01-28T16:15:41.120Z,18.42
2018-01-28T16:18:07.299Z,18.42
2018-01-28T16:20:33.496Z,18.42
2018-01-28T16:23:00.090Z,18.41
2018-01-28T16:25:26.300Z,18.41
2018-01-28T16:27:52.575Z,18.41
2018-01-28T16:30:19.075Z,18.41
2018-01-28T16:32:45.612Z,18.41
2018-01-28T16:35:12.166Z,18.41
2018-01-28T16:37:38.361Z,18.41
2018-01-28T16:40:04.568Z,18.40
2018-01-28T16:42:30.799Z,18.40
2018-01-28T16:44:57.375Z,18.39
2018-01-28T16:47:23.669Z,18.40
2018-01-28T16:49:49.860Z,18.39
2018-01-28T16:52:16.077Z,18.41
2018-01-28T16:54:42.328Z,18.40
2018-01-28T16:57:08.555Z,18.41
2018-01-28T16:59:34.752Z,18.42
2018-01-28T17:02:01.083Z,18.42
2018-01-28T17:04:27.270Z,18.41
2018-01-28T17:06:53.838Z,18.42
2018-01-28T17:09:20.060Z,18.43
2018-01-28T17:11:46.272Z,18.42
2018-01-28T17:14:12.595Z,18.42
2018-01-28T17:16:38.826Z,18.41
2018-01-28T17:19:05.033Z,18.41
2018-01-28T17:21:31.236Z,18.42
2018-01-28T17:23:58.150Z,18.40
2018-01-28T17:26:24.360Z,18.40
2018-01-28T17:28:50.637Z,18.41
2018-01-28T17:31:17.161Z,18.41
2018-01-28T17:33:43.463Z,18.42
2018-01-28T17:36:09.705Z,18.43
2018-01-28T17:38:35.978Z,18.42
2018-01-28T17:41:02.580Z,18.42
2018-01-28T17:43:28.874Z,18.42
2018-01-28T17:45:55.105Z,18.44
2018-01-28T17:48:21.322Z,18.44
2018-01-28T17:50:47.530Z,18.44
2018-01-28T17:53:13.779Z,18.43
2018-01-28T17:55:40.242Z,18.42
2018-01-28T17:58:06.439Z,18.43
2018-01-28T18:00:32.682Z,18.43
2018-01-28T18:02:58.875Z,18.43
2018-01-28T18:05:25.127Z,18.43
2018-01-28T18:07:51.639Z,18.43
2018-01-28T18:10:17.846Z,18.42
2018-01-28T18:12:44.035Z,18.41
2018-01-28T18:15:10.327Z,18.40
2018-01-28T18:17:36.560Z,18.39
2018-01-28T18:20:02.781Z,18.38
2018-01-28T18:22:29.358Z,18.37
2018-01-28T18:24:55.640Z,18.39
2018-01-28T18:27:21.866Z,18.39
2018-01-28T18:29:48.188Z,18.40
2018-01-28T18:32:14.375Z,18.40
2018-01-28T18:34:40.916Z,18.39
2018-01-28T18:37:07.507Z,18.39
2018-01-28T18:39:33.790Z,18.39
2018-01-28T18:42:00.017Z,18.40
2018-01-28T18:44:26.263Z,18.40
2018-01-28T18:46:52.458Z,18.42
2018-01-28T18:49:18.747Z,18.41
2018-01-28T18:51:44.947Z,18.41
2018-01-28T18:54:11.439Z,18.42
2018-01-28T18:56:38.056Z,18.42
2018-01-28T18:59:04.262Z,18.42
2018-01-28T19:01:30.445Z,18.41
2018-01-28T19:03:56.703Z,18.41
2018-01-28T19:06:22.891Z,18.41
2018-01-28T19:08:49.341Z,18.40
2018-01-28T19:11:15.872Z,18.40
2018-01-28T19:13:42.078Z,18.39
2018-01-28T19:16:08.636Z,18.39
2018-01-28T19:18:34.946Z,18.39
2018-01-28T19:21:01.159Z,18.40
2018-01-28T19:23:27.451Z,18.40
2018-01-28T19:25:53.770Z,18.41
2018-01-28T19:28:20.003Z,18.40
2018-01-28T19:30:46.232Z,18.39
2018-01-28T19:33:12.424Z,18.39
2018-01-28T19:35:38.643Z,18.40
2018-01-28T19:40:36.661Z,18.39
2018-01-28T19:43:02.904Z,18.40
2018-01-28T19:45:29.113Z,18.40
2018-01-28T19:47:55.363Z,18.40
2018-01-28T19:50:21.539Z,18.40
2018-01-28T19:52:47.725Z,18.40
2018-01-28T19:55:13.965Z,18.42
2018-01-28T19:57:40.146Z,18.42
2018-01-28T20:00:06.342Z,18.43
2018-01-28T20:02:32.572Z,18.42
2018-01-28T20:04:58.768Z,18.42
2018-01-28T20:07:24.946Z,18.42
2018-01-28T20:09:51.154Z,18.42
2018-01-28T20:12:17.421Z,18.44
2018-01-28T20:14:43.646Z,18.44
2018-01-28T20:17:09.867Z,18.45
2018-01-28T20:19:36.116Z,18.44
2018-01-28T20:22:02.293Z,18.44
2018-01-28T20:24:28.755Z,18.43
2018-01-28T20:26:55.078Z,18.42
2018-01-28T20:29:21.327Z,18.43
2018-01-28T20:31:47.520Z,18.43
2018-01-28T20:34:13.762Z,18.43
2018-01-28T20:36:39.971Z,18.43
2018-01-28T20:39:06.230Z,18.43
2018-01-28T20:41:32.504Z,18.43
2018-01-28T20:43:58.715Z,18.42
2018-01-28T20:46:25.526Z,18.41
2018-01-28T20:48:51.728Z,18.41
2018-01-28T20:51:17.930Z,18.41
2018-01-28T20:53:44.514Z,18.42
2018-01-28T20:56:10.740Z,18.43
2018-01-28T20:58:37.287Z,18.42
2018-01-28T21:01:03.914Z,18.42
2018-01-28T21:03:30.113Z,18.41
2018-01-28T21:05:56.301Z,18.42
2018-01-28T21:08:22.862Z,18.43
2018-01-28T21:10:49.039Z,18.43
2018-01-28T21:13:15.571Z,18.43
2018-01-28T21:15:41.796Z,18.43
2018-01-28T21:18:08.068Z,18.43
2018-01-28T21:20:34.289Z,18.42
2018-01-28T21:23:00.546Z,18.46
2018-01-28T21:25:26.768Z,18.46
2018-01-28T21:27:52.965Z,18.45
2018-01-28T21:30:19.481Z,18.46
2018-01-28T21:32:45.651Z,18.45
2018-01-28T21:35:11.853Z,18.45
2018-01-28T21:37:38.030Z,18.44
2018-01-28T21:40:04.257Z,18.43
2018-01-28T21:42:30.453Z,18.42
2018-01-28T21:44:56.630Z,18.41
2018-01-28T21:47:23.482Z,18.41
2018-01-28T21:49:49.668Z,18.43
2018-01-28T21:52:15.836Z,18.42
2018-01-28T21:54:42.364Z,18.41
2018-01-28T21:57:08.621Z,18.41
2018-01-28T21:59:35.199Z,18.41
2018-01-28T22:02:01.678Z,18.41
2018-01-28T22:04:27.883Z,18.41
2018-01-28T22:06:54.103Z,18.39
2018-01-28T22:09:22.280Z,18.40
2018-01-28T22:11:48.512Z,18.40
2018-01-28T22:14:14.958Z,18.39
2018-01-28T22:16:41.497Z,18.40
2018-01-28T22:19:07.705Z,18.40
2018-01-28T22:21:33.867Z,18.40
2018-01-28T22:24:00.078Z,18.39
2018-01-28T22:26:26.252Z,18.39
2018-01-28T22:28:53.152Z,18.38
2018-01-28T22:31:19.356Z,18.40
2018-01-28T22:33:45.566Z,18.40
2018-01-28T22:36:11.804Z,18.40
2018-01-28T22:38:37.993Z,18.40
2018-01-28T22:41:04.502Z,18.41
2018-01-28T22:43:30.805Z,18.40
2018-01-28T22:45:57.258Z,18.40
2018-01-28T22:48:23.449Z,18.40
2018-01-28T22:50:49.686Z,18.40
2018-01-28T22:53:15.921Z,18.40
2018-01-28T22:55:42.488Z,18.41
2018-01-28T22:58:09.021Z,18.40
2018-01-28T23:00:35.203Z,18.40
2018-01-28T23:03:01.775Z,18.41
2018-01-28T23:05:27.968Z,18.42
2018-01-28T23:07:54.539Z,18.41
2018-01-28T23:10:20.774Z,18.41
2018-01-28T23:12:46.962Z,18.41
2018-01-28T23:15:13.160Z,18.40
2018-01-28T23:17:39.407Z,18.40
2018-01-28T23:20:05.631Z,18.40
2018-01-28T23:22:31.852Z,18.39
2018-01-28T23:24:58.073Z,18.40
2018-01-28T23:27:24.565Z,18.41
2018-01-28T23:29:50.806Z,18.42
2018-01-28T23:32:17.329Z,18.42
2018-01-28T23:34:43.557Z,18.42
2018-01-28T23:37:09.821Z,18.41
2018-01-28T23:39:36.140Z,18.42
2018-01-28T23:42:02.324Z,18.41
2018-01-28T23:44:28.783Z,18.41
2018-01-28T23:46:55.058Z,18.41
2018-01-28T23:49:21.291Z,18.40
2018-01-28T23:51:47.498Z,18.41
2018-01-28T23:54:13.764Z,18.41
2018-01-28T23:56:40.031Z,18.41
2018-01-28T23:59:06.221Z,18.42
